sensor_id;sensor_type;location;lat;lon;timestamp;pressure;altitude;pressure_sealevel;temperature;humidity
18022;BME280;9136;48.822;7.966;2022-10-04T00:02:21;100944.28;;;7.72;100.00
18022;BME280;9136;48.822;7.966;2022-10-04T00:05:15;100941.81;;;7.63;100.00
18022;BME280;9136;48.822;7.966;2022-10-04T00:08:21;100947.91;;;7.63;100.00
18022;BME280;9136;48.822;7.966;2022-10-04T00:11:21;100943.53;;;7.61;100.00
18022;BME280;9136;48.822;7.966;2022-10-04T00:14:19;100949.63;;;7.61;100.00
18022;BME280;9136;48.822;7.966;2022-10-04T00:17:22;100953.06;;;7.69;100.00
18022;BME280;9136;48.822;7.966;2022-10-04T00:23:43;100933.16;;;7.53;100.00
18022;BME280;9136;48.822;7.966;2022-10-04T00:30:15;100929.56;;;7.66;100.00
18022;BME280;9136;48.822;7.966;2022-10-04T00:33:03;100926.13;;;7.60;100.00
18022;BME280;9136;48.822;7.966;2022-10-04T00:35:52;100922.69;;;7.55;100.00
18022;BME280;9136;48.822;7.966;2022-10-04T00:38:42;100936.56;;;7.64;100.00
18022;BME280;9136;48.822;7.966;2022-10-04T00:41:35;100935.72;;;7.58;100.00
18022;BME280;9136;48.822;7.966;2022-10-04T00:44:30;100939.28;;;7.49;100.00
18022;BME280;9136;48.822;7.966;2022-10-04T00:47:33;100934.03;;;7.51;100.00
18022;BME280;9136;48.822;7.966;2022-10-04T00:50:28;100911.53;;;7.33;100.00
18022;BME280;9136;48.822;7.966;2022-10-04T00:53:39;100914.22;;;7.24;100.00
18022;BME280;9136;48.822;7.966;2022-10-04T00:56:35;100918.50;;;7.32;100.00
18022;BME280;9136;48.822;7.966;2022-10-04T00:59:30;100909.00;;;7.25;100.00
18022;BME280;9136;48.822;7.966;2022-10-04T01:02:23;100931.47;;;7.46;100.00
18022;BME280;9136;48.822;7.966;2022-10-04T01:05:14;100940.13;;;7.54;100.00
18022;BME280;9136;48.822;7.966;2022-10-04T01:08:08;100928.94;;;7.38;100.00
18022;BME280;9136;48.822;7.966;2022-10-04T01:11:01;100931.56;;;7.32;100.00
18022;BME280;9136;48.822;7.966;2022-10-04T01:13:57;100915.97;;;7.26;100.00
18022;BME280;9136;48.822;7.966;2022-10-04T01:16:46;100919.38;;;7.34;100.00
18022;BME280;9136;48.822;7.966;2022-10-04T01:19:38;100937.56;;;7.46;100.00
18022;BME280;9136;48.822;7.966;2022-10-04T01:22:40;100911.56;;;7.34;100.00
18022;BME280;9136;48.822;7.966;2022-10-04T01:25:47;100904.56;;;7.36;100.00
18022;BME280;9136;48.822;7.966;2022-10-04T01:28:36;100902.81;;;7.35;100.00
18022;BME280;9136;48.822;7.966;2022-10-04T01:31:27;100935.75;;;7.56;100.00
18022;BME280;9136;48.822;7.966;2022-10-04T01:34:20;100891.56;;;7.27;100.00
18022;BME280;9136;48.822;7.966;2022-10-04T01:37:18;100889.78;;;7.29;100.00
18022;BME280;9136;48.822;7.966;2022-10-04T01:40:09;100883.75;;;7.24;100.00
18022;BME280;9136;48.822;7.966;2022-10-04T01:43:04;100900.19;;;7.37;100.00
18022;BME280;9136;48.822;7.966;2022-10-04T01:45:57;100877.66;;;7.25;100.00
18022;BME280;9136;48.822;7.966;2022-10-04T01:48:53;100896.69;;;7.39;100.00
18022;BME280;9136;48.822;7.966;2022-10-04T01:51:49;100875.00;;;7.28;100.00
18022;BME280;9136;48.822;7.966;2022-10-04T01:54:43;100879.38;;;7.23;100.00
18022;BME280;9136;48.822;7.966;2022-10-04T01:57:39;100882.88;;;7.24;100.00
18022;BME280;9136;48.822;7.966;2022-10-04T02:00:31;100907.22;;;7.30;100.00
18022;BME280;9136;48.822;7.966;2022-10-04T02:03:26;100864.75;;;7.04;100.00
18022;BME280;9136;48.822;7.966;2022-10-04T02:06:16;100903.72;;;7.30;100.00
18022;BME280;9136;48.822;7.966;2022-10-04T02:09:07;100890.78;;;7.13;100.00
18022;BME280;9136;48.822;7.966;2022-10-04T02:11:57;100894.28;;;7.15;100.00
18022;BME280;9136;48.822;7.966;2022-10-04T02:14:50;100866.63;;;6.86;100.00
18022;BME280;9136;48.822;7.966;2022-10-04T02:17:40;100880.47;;;6.98;100.00
18022;BME280;9136;48.822;7.966;2022-10-04T02:20:29;100896.94;;;7.07;100.00
18022;BME280;9136;48.822;7.966;2022-10-04T02:23:18;100891.81;;;6.97;100.00
18022;BME280;9136;48.822;7.966;2022-10-04T02:26:08;100884.84;;;6.94;100.00
18022;BME280;9136;48.822;7.966;2022-10-04T02:28:57;100871.00;;;6.86;100.00
18022;BME280;9136;48.822;7.966;2022-10-04T02:31:47;100864.09;;;6.74;100.00
18022;BME280;9136;48.822;7.966;2022-10-04T02:34:56;100872.78;;;6.79;100.00
18022;BME280;9136;48.822;7.966;2022-10-04T02:37:46;100857.09;;;6.79;100.00
18022;BME280;9136;48.822;7.966;2022-10-04T02:40:43;100858.84;;;6.79;100.00
18022;BME280;9136;48.822;7.966;2022-10-04T02:43:39;100873.63;;;6.81;100.00
18022;BME280;9136;48.822;7.966;2022-10-04T02:46:34;100869.25;;;6.82;100.00
18022;BME280;9136;48.822;7.966;2022-10-04T02:49:29;100888.41;;;6.82;100.00
18022;BME280;9136;48.822;7.966;2022-10-04T02:52:24;100882.31;;;6.82;100.00
18022;BME280;9136;48.822;7.966;2022-10-04T02:55:18;100862.38;;;6.70;100.00
18022;BME280;9136;48.822;7.966;2022-10-04T02:58:09;100874.47;;;6.83;100.00
18022;BME280;9136;48.822;7.966;2022-10-04T03:00:58;100868.44;;;6.75;100.00
18022;BME280;9136;48.822;7.966;2022-10-04T03:03:52;100865.91;;;6.66;100.00
18022;BME280;9136;48.822;7.966;2022-10-04T03:06:43;100853.75;;;6.59;100.00
18022;BME280;9136;48.822;7.966;2022-10-04T03:09:36;100873.69;;;6.72;100.00
18022;BME280;9136;48.822;7.966;2022-10-04T03:12:28;100843.41;;;6.47;100.00
18022;BME280;9136;48.822;7.966;2022-10-04T03:15:18;100870.28;;;6.61;100.00
18022;BME280;9136;48.822;7.966;2022-10-04T03:18:08;100888.53;;;6.64;100.00
18022;BME280;9136;48.822;7.966;2022-10-04T03:21:00;100843.44;;;6.35;100.00
18022;BME280;9136;48.822;7.966;2022-10-04T03:23:51;100859.03;;;6.48;100.00
18022;BME280;9136;48.822;7.966;2022-10-04T03:26:42;100845.25;;;6.28;100.00
18022;BME280;9136;48.822;7.966;2022-10-04T03:29:32;100828.75;;;6.17;100.00
18022;BME280;9136;48.822;7.966;2022-10-04T03:32:20;100866.97;;;6.27;100.00
18022;BME280;9136;48.822;7.966;2022-10-04T03:35:18;100842.72;;;6.08;100.00
18022;BME280;9136;48.822;7.966;2022-10-04T03:38:11;100860.91;;;6.25;100.00
18022;BME280;9136;48.822;7.966;2022-10-04T03:41:01;100866.13;;;6.23;100.00
18022;BME280;9136;48.822;7.966;2022-10-04T03:43:51;100836.56;;;6.21;100.00
18022;BME280;9136;48.822;7.966;2022-10-04T03:46:43;100858.25;;;6.32;100.00
18022;BME280;9136;48.822;7.966;2022-10-04T03:49:34;100851.31;;;6.27;100.00
18022;BME280;9136;48.822;7.966;2022-10-04T03:52:24;100859.94;;;6.41;100.00
18022;BME280;9136;48.822;7.966;2022-10-04T03:55:14;100844.38;;;6.27;100.00
18022;BME280;9136;48.822;7.966;2022-10-04T03:58:04;100849.56;;;6.26;100.00
18022;BME280;9136;48.822;7.966;2022-10-04T04:01:03;100851.34;;;6.24;100.00
18022;BME280;9136;48.822;7.966;2022-10-04T04:04:05;100860.06;;;6.17;100.00
18022;BME280;9136;48.822;7.966;2022-10-04T04:07:00;100853.09;;;6.16;100.00
18022;BME280;9136;48.822;7.966;2022-10-04T04:09:52;100854.03;;;6.10;100.00
18022;BME280;9136;48.822;7.966;2022-10-04T04:12:46;100834.94;;;5.97;100.00
18022;BME280;9136;48.822;7.966;2022-10-04T04:15:40;100856.63;;;6.07;100.00
18022;BME280;9136;48.822;7.966;2022-10-04T04:18:31;100820.16;;;5.95;100.00
18022;BME280;9136;48.822;7.966;2022-10-04T04:21:21;100858.38;;;6.07;100.00
18022;BME280;9136;48.822;7.966;2022-10-04T04:24:16;100849.72;;;5.94;100.00
18022;BME280;9136;48.822;7.966;2022-10-04T04:27:08;100867.94;;;6.06;100.00
18022;BME280;9136;48.822;7.966;2022-10-04T04:29:59;100864.47;;;5.98;100.00
18022;BME280;9136;48.822;7.966;2022-10-04T04:32:53;100867.97;;;5.95;100.00
18022;BME280;9136;48.822;7.966;2022-10-04T04:35:43;100862.75;;;6.00;100.00
18022;BME280;9136;48.822;7.966;2022-10-04T04:38:34;100853.19;;;5.90;100.00
18022;BME280;9136;48.822;7.966;2022-10-04T04:41:42;100836.72;;;5.91;100.00
18022;BME280;9136;48.822;7.966;2022-10-04T04:44:31;100844.50;;;6.01;100.00
18022;BME280;9136;48.822;7.966;2022-10-04T04:47:28;100836.69;;;5.86;100.00
18022;BME280;9136;48.822;7.966;2022-10-04T04:50:22;100835.84;;;5.83;100.00
18022;BME280;9136;48.822;7.966;2022-10-04T04:53:14;100848.84;;;5.86;100.00
18022;BME280;9136;48.822;7.966;2022-10-04T04:56:06;100847.13;;;5.85;100.00
18022;BME280;9136;48.822;7.966;2022-10-04T04:58:56;100861.03;;;5.94;100.00
18022;BME280;9136;48.822;7.966;2022-10-04T05:01:54;100888.81;;;6.03;100.00
18022;BME280;9136;48.822;7.966;2022-10-04T05:04:44;100853.19;;;5.96;100.00
18022;BME280;9136;48.822;7.966;2022-10-04T05:07:33;100867.00;;;6.22;100.00
18022;BME280;9136;48.822;7.966;2022-10-04T05:10:28;100864.38;;;6.30;100.00
18022;BME280;9136;48.822;7.966;2022-10-04T05:13:17;100875.63;;;6.34;100.00
18022;BME280;9136;48.822;7.966;2022-10-04T05:16:12;100885.22;;;6.33;100.00
18022;BME280;9136;48.822;7.966;2022-10-04T05:19:02;100879.06;;;6.43;100.00
18022;BME280;9136;48.822;7.966;2022-10-04T05:21:55;100859.94;;;6.43;100.00
18022;BME280;9136;48.822;7.966;2022-10-04T05:28:18;100913.75;;;6.70;100.00
18022;BME280;9136;48.822;7.966;2022-10-04T05:31:27;100899.03;;;6.56;100.00
18022;BME280;9136;48.822;7.966;2022-10-04T05:34:22;100898.16;;;6.57;100.00
18022;BME280;9136;48.822;7.966;2022-10-04T05:37:32;100882.56;;;6.41;100.00
18022;BME280;9136;48.822;7.966;2022-10-04T05:40:34;100897.31;;;6.45;100.00
18022;BME280;9136;48.822;7.966;2022-10-04T05:43:34;100912.94;;;6.57;100.00
18022;BME280;9136;48.822;7.966;2022-10-04T05:46:24;100896.44;;;6.46;100.00
18022;BME280;9136;48.822;7.966;2022-10-04T05:49:15;100896.44;;;6.50;100.00
18022;BME280;9136;48.822;7.966;2022-10-04T05:52:13;100925.94;;;6.66;100.00
18022;BME280;9136;48.822;7.966;2022-10-04T05:55:15;100898.06;;;6.71;100.00
18022;BME280;9136;48.822;7.966;2022-10-04T05:58:30;100891.09;;;6.72;100.00
18022;BME280;9136;48.822;7.966;2022-10-04T06:01:40;100933.59;;;6.98;100.00
18022;BME280;9136;48.822;7.966;2022-10-04T06:04:53;100891.88;;;6.84;100.00
18022;BME280;9136;48.822;7.966;2022-10-04T06:07:52;100916.84;;;7.24;100.00
18022;BME280;9136;48.822;7.966;2022-10-04T06:11:11;100888.19;;;7.13;100.00
18022;BME280;9136;48.822;7.966;2022-10-04T06:14:41;100914.09;;;7.43;100.00
18022;BME280;9136;48.822;7.966;2022-10-04T06:21:40;100919.13;;;7.62;100.00
18022;BME280;9136;48.822;7.966;2022-10-04T06:26:57;100903.53;;;7.54;100.00
18022;BME280;9136;48.822;7.966;2022-10-04T06:28:58;100885.19;;;7.57;100.00
18022;BME280;9136;48.822;7.966;2022-10-04T06:36:14;100917.38;;;7.64;100.00
18022;BME280;9136;48.822;7.966;2022-10-04T06:43:57;100903.56;;;7.48;100.00
18022;BME280;9136;48.822;7.966;2022-10-04T06:47:29;100913.13;;;7.54;100.00
18022;BME280;9136;48.822;7.966;2022-10-04T06:50:41;100905.22;;;7.58;100.00
18022;BME280;9136;48.822;7.966;2022-10-04T06:54:06;100930.31;;;7.78;100.00
18022;BME280;9136;48.822;7.966;2022-10-04T07:01:05;100945.06;;;7.85;100.00
18022;BME280;9136;48.822;7.966;2022-10-04T07:04:21;100910.41;;;7.63;100.00
18022;BME280;9136;48.822;7.966;2022-10-04T07:07:28;100923.31;;;7.80;100.00
18022;BME280;9136;48.822;7.966;2022-10-04T07:10:36;100923.09;;;8.02;100.00
18022;BME280;9136;48.822;7.966;2022-10-04T07:13:33;100935.09;;;8.22;100.00
18022;BME280;9136;48.822;7.966;2022-10-04T07:16:42;100917.72;;;8.15;100.00
18022;BME280;9136;48.822;7.966;2022-10-04T07:19:35;100925.50;;;8.21;100.00
18022;BME280;9136;48.822;7.966;2022-10-04T07:22:29;100909.97;;;8.04;100.00
18022;BME280;9136;48.822;7.966;2022-10-04T07:25:25;100924.47;;;8.36;100.00
18022;BME280;9136;48.822;7.966;2022-10-04T07:28:24;100944.34;;;8.49;100.00
18022;BME280;9136;48.822;7.966;2022-10-04T07:31:32;100950.50;;;8.46;100.00
18022;BME280;9136;48.822;7.966;2022-10-04T07:34:29;100947.81;;;8.52;100.00
18022;BME280;9136;48.822;7.966;2022-10-04T07:38:02;100913.69;;;8.60;100.00
18022;BME280;9136;48.822;7.966;2022-10-04T07:41:11;100929.72;;;8.99;100.00
18022;BME280;9136;48.822;7.966;2022-10-04T07:44:36;100939.91;;;9.18;100.00
18022;BME280;9136;48.822;7.966;2022-10-04T07:47:33;100926.53;;;9.34;100.00
18022;BME280;9136;48.822;7.966;2022-10-04T07:50:40;100936.84;;;9.46;100.00
18022;BME280;9136;48.822;7.966;2022-10-04T07:53:36;100926.03;;;9.64;100.00
18022;BME280;9136;48.822;7.966;2022-10-04T07:56:32;100952.34;;;9.60;100.00
18022;BME280;9136;48.822;7.966;2022-10-04T07:59:40;100940.91;;;9.64;100.00
18022;BME280;9136;48.822;7.966;2022-10-04T08:02:52;100911.63;;;9.39;100.00
18022;BME280;9136;48.822;7.966;2022-10-04T08:05:48;100922.44;;;9.16;100.00
18022;BME280;9136;48.822;7.966;2022-10-04T08:09:16;100915.72;;;9.01;100.00
18022;BME280;9136;48.822;7.966;2022-10-04T08:12:10;100947.78;;;9.18;100.00
18022;BME280;9136;48.822;7.966;2022-10-04T08:18:44;100956.28;;;9.33;100.00
18022;BME280;9136;48.822;7.966;2022-10-04T08:22:13;100951.88;;;9.36;100.00
18022;BME280;9136;48.822;7.966;2022-10-04T08:25:44;100929.19;;;9.32;100.00
18022;BME280;9136;48.822;7.966;2022-10-04T08:29:04;100938.53;;;9.50;100.00
18022;BME280;9136;48.822;7.966;2022-10-04T08:33:20;100939.78;;;9.79;100.00
18022;BME280;9136;48.822;7.966;2022-10-04T08:36:30;100937.56;;;10.02;100.00
18022;BME280;9136;48.822;7.966;2022-10-04T09:41:55;100941.00;;;11.65;100.00
18022;BME280;9136;48.822;7.966;2022-10-04T09:45:36;100958.59;;;12.29;100.00
18022;BME280;9136;48.822;7.966;2022-10-04T09:49:21;100926.34;;;11.55;100.00
18022;BME280;9136;48.822;7.966;2022-10-04T09:52:40;100921.69;;;11.64;100.00
18022;BME280;9136;48.822;7.966;2022-10-04T09:59:59;100948.75;;;12.67;100.00
18022;BME280;9136;48.822;7.966;2022-10-04T10:11:22;100940.69;;;13.56;100.00
18022;BME280;9136;48.822;7.966;2022-10-04T10:36:42;100923.44;;;13.45;100.00
18022;BME280;9136;48.822;7.966;2022-10-04T10:41:07;100918.44;;;13.08;100.00
18022;BME280;9136;48.822;7.966;2022-10-04T12:04:53;100859.00;;;29.77;34.54
18022;BME280;9136;48.822;7.966;2022-10-04T12:07:58;100873.47;;;30.45;31.96
18022;BME280;9136;48.822;7.966;2022-10-04T12:31:46;100856.81;;;30.32;31.37
18022;BME280;9136;48.822;7.966;2022-10-04T12:41:52;100830.28;;;31.76;29.16
18022;BME280;9136;48.822;7.966;2022-10-04T12:45:30;100825.66;;;30.95;30.78
18022;BME280;9136;48.822;7.966;2022-10-04T12:48:56;100841.22;;;32.07;29.15
18022;BME280;9136;48.822;7.966;2022-10-04T12:52:10;100828.72;;;31.81;29.40
18022;BME280;9136;48.822;7.966;2022-10-04T12:55:16;100807.16;;;29.72;30.79
18022;BME280;9136;48.822;7.966;2022-10-04T12:58:17;100827.00;;;30.32;32.55
18022;BME280;9136;48.822;7.966;2022-10-04T13:01:24;100814.47;;;31.14;31.39
18022;BME280;9136;48.822;7.966;2022-10-04T13:04:28;100795.34;;;29.73;34.90
18022;BME280;9136;48.822;7.966;2022-10-04T13:07:36;100821.81;;;29.87;33.47
18022;BME280;9136;48.822;7.966;2022-10-04T13:17:42;100801.81;;;25.44;41.03
18022;BME280;9136;48.822;7.966;2022-10-04T13:20:56;100798.91;;;25.99;39.80
18022;BME280;9136;48.822;7.966;2022-10-04T13:24:03;100786.41;;;22.79;51.56
18022;BME280;9136;48.822;7.966;2022-10-04T13:27:05;100790.94;;;22.42;51.61
18022;BME280;9136;48.822;7.966;2022-10-04T13:29:59;100788.44;;;22.75;52.47
18022;BME280;9136;48.822;7.966;2022-10-04T13:32:59;100798.38;;;22.86;52.02
18022;BME280;9136;48.822;7.966;2022-10-04T13:35:54;100782.34;;;22.13;58.45
18022;BME280;9136;48.822;7.966;2022-10-04T13:39:02;100784.97;;;21.24;70.35
18022;BME280;9136;48.822;7.966;2022-10-04T13:42:09;100766.72;;;20.22;78.28
18022;BME280;9136;48.822;7.966;2022-10-04T13:45:14;100801.63;;;20.19;80.10
18022;BME280;9136;48.822;7.966;2022-10-04T13:48:28;100765.38;;;19.60;86.55
18022;BME280;9136;48.822;7.966;2022-10-04T13:51:47;100765.53;;;19.85;73.59
18022;BME280;9136;48.822;7.966;2022-10-04T13:55:10;100759.41;;;19.40;91.39
18022;BME280;9136;48.822;7.966;2022-10-04T13:58:31;100758.56;;;19.54;85.38
18022;BME280;9136;48.822;7.966;2022-10-04T14:01:56;100752.69;;;19.63;84.95
18022;BME280;9136;48.822;7.966;2022-10-04T14:15:37;100749.41;;;19.44;88.60
18022;BME280;9136;48.822;7.966;2022-10-04T14:19:07;100737.84;;;19.59;83.56
18022;BME280;9136;48.822;7.966;2022-10-04T14:22:22;100735.72;;;18.92;94.14
18022;BME280;9136;48.822;7.966;2022-10-04T14:29:13;100713.97;;;18.22;100.00
18022;BME280;9136;48.822;7.966;2022-10-04T14:35:43;100714.41;;;18.30;100.00
18022;BME280;9136;48.822;7.966;2022-10-04T14:38:58;100718.53;;;18.04;100.00
18022;BME280;9136;48.822;7.966;2022-10-04T14:42:28;100705.19;;;18.06;100.00
18022;BME280;9136;48.822;7.966;2022-10-04T14:45:35;100705.56;;;18.14;100.00
18022;BME280;9136;48.822;7.966;2022-10-04T14:48:50;100713.13;;;18.37;100.00
18022;BME280;9136;48.822;7.966;2022-10-04T14:51:51;100731.47;;;18.57;100.00
18022;BME280;9136;48.822;7.966;2022-10-04T14:54:49;100714.16;;;18.19;100.00
18022;BME280;9136;48.822;7.966;2022-10-04T14:57:53;100725.66;;;18.35;94.92
18022;BME280;9136;48.822;7.966;2022-10-04T15:01:04;100719.44;;;18.50;99.28
18022;BME280;9136;48.822;7.966;2022-10-04T15:04:15;100716.13;;;18.47;87.97
18022;BME280;9136;48.822;7.966;2022-10-04T15:07:17;100714.72;;;18.55;79.87
18022;BME280;9136;48.822;7.966;2022-10-04T15:10:14;100733.59;;;18.82;77.49
18022;BME280;9136;48.822;7.966;2022-10-04T15:13:20;100716.69;;;18.83;84.80
18022;BME280;9136;48.822;7.966;2022-10-04T15:16:15;100706.38;;;18.16;93.41
18022;BME280;9136;48.822;7.966;2022-10-04T15:19:23;100700.69;;;17.90;88.81
18022;BME280;9136;48.822;7.966;2022-10-04T15:22:20;100680.19;;;17.92;88.84
18022;BME280;9136;48.822;7.966;2022-10-04T15:25:38;100718.72;;;18.01;97.41
18022;BME280;9136;48.822;7.966;2022-10-04T15:28:39;100687.31;;;17.76;100.00
18022;BME280;9136;48.822;7.966;2022-10-04T15:31:33;100711.41;;;17.89;94.21
18022;BME280;9136;48.822;7.966;2022-10-04T15:34:29;100705.94;;;17.92;98.07
18022;BME280;9136;48.822;7.966;2022-10-04T15:37:22;100706.09;;;18.05;92.56
18022;BME280;9136;48.822;7.966;2022-10-04T15:40:21;100714.78;;;18.08;100.00
18022;BME280;9136;48.822;7.966;2022-10-04T15:43:23;100697.44;;;17.52;100.00
18022;BME280;9136;48.822;7.966;2022-10-04T15:46:38;100701.63;;;17.40;100.00
18022;BME280;9136;48.822;7.966;2022-10-04T15:53:03;100687.13;;;17.30;100.00
18022;BME280;9136;48.822;7.966;2022-10-04T15:56:03;100702.03;;;17.15;100.00
18022;BME280;9136;48.822;7.966;2022-10-04T15:59:13;100699.19;;;17.03;100.00
18022;BME280;9136;48.822;7.966;2022-10-04T16:02:33;100703.63;;;16.85;100.00
18022;BME280;9136;48.822;7.966;2022-10-04T16:05:33;100685.69;;;16.73;100.00
18022;BME280;9136;48.822;7.966;2022-10-04T16:15:12;100679.19;;;17.13;100.00
18022;BME280;9136;48.822;7.966;2022-10-04T16:18:23;100700.78;;;17.23;100.00
18022;BME280;9136;48.822;7.966;2022-10-04T16:21:26;100710.34;;;17.09;100.00
18022;BME280;9136;48.822;7.966;2022-10-04T16:24:41;100679.53;;;16.72;100.00
18022;BME280;9136;48.822;7.966;2022-10-04T16:27:50;100670.97;;;16.48;100.00
18022;BME280;9136;48.822;7.966;2022-10-04T16:30:49;100668.16;;;16.34;100.00
18022;BME280;9136;48.822;7.966;2022-10-04T16:33:59;100693.41;;;16.24;100.00
18022;BME280;9136;48.822;7.966;2022-10-04T16:36:53;100679.69;;;15.97;100.00
18022;BME280;9136;48.822;7.966;2022-10-04T16:39:55;100668.47;;;15.53;100.00
18022;BME280;9136;48.822;7.966;2022-10-04T16:42:54;100697.56;;;15.34;100.00
18022;BME280;9136;48.822;7.966;2022-10-04T16:46:04;100677.69;;;14.84;100.00
18022;BME280;9136;48.822;7.966;2022-10-04T16:48:56;100696.25;;;14.63;100.00
18022;BME280;9136;48.822;7.966;2022-10-04T16:52:09;100695.41;;;14.40;100.00
18022;BME280;9136;48.822;7.966;2022-10-04T16:55:25;100693.00;;;14.12;100.00
18022;BME280;9136;48.822;7.966;2022-10-04T16:58:50;100659.31;;;13.73;100.00
18022;BME280;9136;48.822;7.966;2022-10-04T17:05:52;100679.13;;;13.62;100.00
18022;BME280;9136;48.822;7.966;2022-10-04T17:08:47;100688.66;;;13.42;100.00
18022;BME280;9136;48.822;7.966;2022-10-04T17:11:43;100671.19;;;13.38;100.00
18022;BME280;9136;48.822;7.966;2022-10-04T17:14:45;100660.88;;;13.07;100.00
18022;BME280;9136;48.822;7.966;2022-10-04T17:17:44;100687.78;;;13.17;100.00
18022;BME280;9136;48.822;7.966;2022-10-04T17:20:45;100698.09;;;13.25;100.00
18022;BME280;9136;48.822;7.966;2022-10-04T17:24:10;100654.41;;;12.91;100.00
18022;BME280;9136;48.822;7.966;2022-10-04T17:27:20;100696.16;;;12.78;100.00
18022;BME280;9136;48.822;7.966;2022-10-04T17:30:17;100664.00;;;12.42;100.00
18022;BME280;9136;48.822;7.966;2022-10-04T17:33:31;100702.00;;;12.61;100.00
18022;BME280;9136;48.822;7.966;2022-10-04T17:36:33;100692.78;;;12.48;100.00
18022;BME280;9136;48.822;7.966;2022-10-04T17:39:36;100691.44;;;12.35;100.00
18022;BME280;9136;48.822;7.966;2022-10-04T17:42:32;100709.13;;;12.31;100.00
18022;BME280;9136;48.822;7.966;2022-10-04T17:45:41;100695.63;;;12.14;100.00
18022;BME280;9136;48.822;7.966;2022-10-04T17:48:42;100681.72;;;12.11;100.00
18022;BME280;9136;48.822;7.966;2022-10-04T17:51:51;100718.25;;;12.21;100.00
18022;BME280;9136;48.822;7.966;2022-10-04T17:55:11;100699.91;;;11.90;100.00
18022;BME280;9136;48.822;7.966;2022-10-04T17:58:11;100690.59;;;11.79;100.00
18022;BME280;9136;48.822;7.966;2022-10-04T18:01:04;100728.28;;;11.79;100.00
18022;BME280;9136;48.822;7.966;2022-10-04T18:03:58;100705.50;;;11.49;100.00
18022;BME280;9136;48.822;7.966;2022-10-04T18:06:56;100703.91;;;11.43;100.00
18022;BME280;9136;48.822;7.966;2022-10-04T18:09:47;100688.53;;;11.28;100.00
18022;BME280;9136;48.822;7.966;2022-10-04T18:12:42;100696.38;;;11.31;100.00
18022;BME280;9136;48.822;7.966;2022-10-04T18:15:37;100711.34;;;11.27;100.00
18022;BME280;9136;48.822;7.966;2022-10-04T18:18:29;100705.28;;;11.25;100.00
18022;BME280;9136;48.822;7.966;2022-10-04T18:21:27;100694.66;;;11.28;100.00
18022;BME280;9136;48.822;7.966;2022-10-04T18:24:19;100681.84;;;11.16;100.00
18022;BME280;9136;48.822;7.966;2022-10-04T18:27:20;100698.03;;;11.33;100.00
18022;BME280;9136;48.822;7.966;2022-10-04T18:30:13;100719.78;;;11.40;100.00
18022;BME280;9136;48.822;7.966;2022-10-04T18:33:12;100696.81;;;11.14;100.00
18022;BME280;9136;48.822;7.966;2022-10-04T18:36:04;100708.50;;;11.04;100.00
18022;BME280;9136;48.822;7.966;2022-10-04T18:39:16;100711.47;;;10.92;100.00
18022;BME280;9136;48.822;7.966;2022-10-04T18:42:17;100707.72;;;10.66;100.00
18022;BME280;9136;48.822;7.966;2022-10-04T18:45:19;100719.97;;;10.67;100.00
18022;BME280;9136;48.822;7.966;2022-10-04T18:48:14;100717.38;;;10.66;100.00
18022;BME280;9136;48.822;7.966;2022-10-04T18:51:22;100707.88;;;10.60;100.00
18022;BME280;9136;48.822;7.966;2022-10-04T18:54:19;100708.84;;;10.56;100.00
18022;BME280;9136;48.822;7.966;2022-10-04T18:57:20;100735.69;;;10.69;100.00
18022;BME280;9136;48.822;7.966;2022-10-04T19:00:12;100709.94;;;10.47;100.00
18022;BME280;9136;48.822;7.966;2022-10-04T19:03:26;100723.78;;;10.54;100.00
18022;BME280;9136;48.822;7.966;2022-10-04T19:06:23;100722.22;;;10.47;100.00
18022;BME280;9136;48.822;7.966;2022-10-04T19:09:18;100703.38;;;10.29;100.00
18022;BME280;9136;48.822;7.966;2022-10-04T19:12:11;100726.81;;;10.37;100.00
18022;BME280;9136;48.822;7.966;2022-10-04T19:15:09;100740.69;;;10.44;100.00
18022;BME280;9136;48.822;7.966;2022-10-04T19:18:25;100720.91;;;10.27;100.00
18022;BME280;9136;48.822;7.966;2022-10-04T19:21:24;100716.75;;;10.17;100.00
18022;BME280;9136;48.822;7.966;2022-10-04T19:24:46;100722.94;;;10.15;100.00
18022;BME280;9136;48.822;7.966;2022-10-04T19:27:42;100731.84;;;10.08;100.00
18022;BME280;9136;48.822;7.966;2022-10-04T19:31:00;100742.63;;;9.95;100.00
18022;BME280;9136;48.822;7.966;2022-10-04T19:33:57;100762.09;;;9.85;100.00
18022;BME280;9136;48.822;7.966;2022-10-04T19:36:50;100749.16;;;9.76;100.00
18022;BME280;9136;48.822;7.966;2022-10-04T19:39:54;100782.66;;;10.03;100.00
18022;BME280;9136;48.822;7.966;2022-10-04T19:42:54;100749.88;;;9.83;100.00
18022;BME280;9136;48.822;7.966;2022-10-04T19:45:58;100760.34;;;9.86;100.00
18022;BME280;9136;48.822;7.966;2022-10-04T19:48:49;100788.06;;;9.97;100.00
18022;BME280;9136;48.822;7.966;2022-10-04T19:51:45;100779.25;;;10.00;100.00
18022;BME280;9136;48.822;7.966;2022-10-04T19:54:38;100757.53;;;9.93;100.00
18022;BME280;9136;48.822;7.966;2022-10-04T19:57:35;100782.47;;;10.14;100.00
18022;BME280;9136;48.822;7.966;2022-10-04T20:00:24;100795.59;;;10.13;100.00
18022;BME280;9136;48.822;7.966;2022-10-04T20:03:14;100780.22;;;9.96;100.00
18022;BME280;9136;48.822;7.966;2022-10-04T20:06:03;100800.13;;;10.06;100.00
18022;BME280;9136;48.822;7.966;2022-10-04T20:08:54;100768.28;;;9.81;100.00
18022;BME280;9136;48.822;7.966;2022-10-04T20:11:46;100784.06;;;9.80;100.00
18022;BME280;9136;48.822;7.966;2022-10-04T20:14:45;100800.47;;;9.89;100.00
18022;BME280;9136;48.822;7.966;2022-10-04T20:17:34;100761.53;;;9.69;100.00
18022;BME280;9136;48.822;7.966;2022-10-04T20:21:02;100765.91;;;9.69;100.00
18022;BME280;9136;48.822;7.966;2022-10-04T20:23:52;100773.00;;;9.64;100.00
18022;BME280;9136;48.822;7.966;2022-10-04T20:26:45;100781.84;;;9.60;100.00
18022;BME280;9136;48.822;7.966;2022-10-04T20:30:02;100811.44;;;9.66;100.00
18022;BME280;9136;48.822;7.966;2022-10-04T20:33:00;100770.81;;;9.42;100.00
18022;BME280;9136;48.822;7.966;2022-10-04T20:36:01;100811.63;;;9.57;100.00